createdAt,value
2023-03-16T00:05:43.940Z,1.9
2023-03-16T00:11:37.911Z,1.9
2023-03-16T00:17:16.402Z,1.8
2023-03-16T00:22:39.114Z,1.8
2023-03-16T00:28:01.145Z,1.8
2023-03-16T00:33:54.359Z,1.7
2023-03-16T00:39:48.028Z,1.6
2023-03-16T00:45:40.996Z,1.6
2023-03-16T00:51:03.581Z,1.5
2023-03-16T00:56:57.358Z,1.4
2023-03-16T01:02:35.006Z,1.4
2023-03-16T01:08:27.478Z,1.3
2023-03-16T01:13:33.665Z,1.3
2023-03-16T01:19:26.596Z,1.2
2023-03-16T01:24:31.812Z,1.1
2023-03-16T01:30:09.073Z,1.1
2023-03-16T01:36:03.768Z,1.1
2023-03-16T01:41:55.324Z,1
2023-03-16T01:47:17.724Z,0.9
2023-03-16T01:52:57.139Z,0.9
2023-03-16T01:58:49.035Z,0.8
2023-03-16T02:04:12.334Z,0.8
2023-03-16T02:09:35.623Z,0.7
2023-03-16T02:15:29.012Z,0.6
2023-03-16T02:21:07.187Z,0.6
2023-03-16T02:27:00.648Z,0.5
2023-03-16T02:32:53.714Z,0.5
2023-03-16T02:38:47.283Z,0.4
2023-03-16T02:44:25.475Z,0.4
2023-03-16T02:50:03.620Z,0.4
2023-03-16T02:55:56.282Z,0.4
2023-03-16T03:01:34.741Z,0.4
2023-03-16T03:06:42.688Z,0.4
2023-03-16T03:12:35.339Z,0.4
2023-03-16T03:18:28.238Z,0.4
2023-03-16T03:24:20.460Z,0.4
2023-03-16T03:29:57.743Z,0.4
2023-03-16T03:35:51.039Z,0.4
2023-03-16T03:41:12.876Z,0.3
2023-03-16T03:46:50.683Z,0.3
2023-03-16T03:52:13.436Z,0.3
2023-03-16T03:57:21.493Z,0.4
2023-03-16T04:03:15.895Z,0.3
2023-03-16T04:09:09.466Z,0.3
2023-03-16T04:14:46.387Z,0.4
2023-03-16T04:20:23.999Z,0.4
2023-03-16T04:26:02.590Z,0.4
2023-03-16T04:31:24.384Z,0.4
2023-03-16T04:37:02.182Z,0.3
2023-03-16T04:42:40.398Z,0.4
2023-03-16T04:48:17.702Z,0.3
2023-03-16T04:53:55.992Z,0.3
2023-03-16T04:59:49.385Z,0.3
2023-03-16T05:05:47.886Z,0.3
2023-03-16T05:11:25.465Z,0.3
2023-03-16T05:16:47.382Z,0.3
2023-03-16T05:22:40.014Z,0.3
2023-03-16T05:28:33.145Z,0.4
2023-03-16T05:33:57.009Z,0.4
2023-03-16T05:39:36.758Z,0.4
2023-03-16T05:45:29.646Z,0.4
2023-03-16T05:51:08.791Z,0.4
2023-03-16T05:56:46.970Z,0.4
2023-03-16T06:02:40.329Z,0.4
2023-03-16T06:08:34.975Z,0.5
2023-03-16T06:14:27.956Z,0.6
2023-03-16T06:20:19.904Z,0.6
2023-03-16T06:26:14.788Z,0.8
2023-03-16T06:32:07.597Z,0.8
2023-03-16T06:38:02.839Z,0.9
2023-03-16T06:43:59.294Z,1.1
2023-03-16T06:49:36.635Z,1.1
2023-03-16T06:55:15.845Z,1.3
2023-03-16T07:01:08.609Z,1.5
2023-03-16T07:07:01.408Z,1.9
2023-03-16T07:12:53.924Z,2.3
2023-03-16T07:18:51.637Z,2.9
2023-03-16T07:24:45.314Z,3.7
2023-03-16T07:30:53.289Z,4.8
2023-03-16T07:36:53.648Z,6
2023-03-16T07:42:30.909Z,7
2023-03-16T07:48:08.051Z,7.8
2023-03-16T07:53:47.492Z,8.4
2023-03-16T07:59:55.558Z,8.9
2023-03-16T08:05:50.193Z,9.7
2023-03-16T08:11:46.221Z,10.3
2023-03-16T08:17:24.515Z,10.6
2023-03-16T08:23:29.501Z,10.7
2023-03-16T08:29:22.608Z,10.6
2023-03-16T08:35:01.504Z,10.4
2023-03-16T08:40:51.366Z,10.2
2023-03-16T08:46:29.677Z,10.2
2023-03-16T08:52:06.430Z,10.3
2023-03-16T08:58:10.665Z,10.5
2023-03-16T09:04:17.462Z,10.8
2023-03-16T09:10:17.952Z,11
2023-03-16T09:15:56.267Z,11.3
2023-03-16T09:22:07.046Z,11.4
2023-03-16T09:27:44.866Z,11.5
2023-03-16T09:33:42.473Z,11.4
2023-03-16T09:39:35.505Z,11.2
2023-03-16T09:45:17.279Z,10.9
2023-03-16T09:50:48.018Z,10.7
2023-03-16T09:56:10.451Z,10.4
2023-03-16T10:01:47.694Z,10.2
2023-03-16T10:07:40.765Z,10
2023-03-16T10:13:33.272Z,9.9
2023-03-16T10:19:25.778Z,9.9
2023-03-16T10:25:18.271Z,9.9
2023-03-16T10:30:55.781Z,10.1
2023-03-16T10:36:36.133Z,10.6
2023-03-16T10:42:29.041Z,11.1
2023-03-16T10:48:24.539Z,11.6
2023-03-16T10:54:17.390Z,12.3
2023-03-16T11:00:10.176Z,12.6
2023-03-16T11:06:05.102Z,12.8
2023-03-16T11:12:06.980Z,12.8
2023-03-16T11:18:15.395Z,13
2023-03-16T11:24:08.772Z,13
2023-03-16T11:30:00.464Z,13
2023-03-16T11:36:12.924Z,12.9
2023-03-16T11:41:50.898Z,12.8
2023-03-16T11:47:42.896Z,12.6
2023-03-16T11:53:35.530Z,12.3
2023-03-16T11:59:12.623Z,12.2
2023-03-16T12:05:26.110Z,11.9
2023-03-16T12:11:12.492Z,11.6
2023-03-16T12:17:22.206Z,11.4
2023-03-16T12:23:15.360Z,11.3
2023-03-16T12:29:08.516Z,11
2023-03-16T12:34:46.516Z,10.9
2023-03-16T12:40:38.674Z,10.7
2023-03-16T12:46:31.415Z,10.6
2023-03-16T12:52:11.146Z,10.4
2023-03-16T12:57:49.265Z,10.1
2023-03-16T13:03:11.108Z,10.1
2023-03-16T13:08:54.655Z,10.2
2023-03-16T13:14:32.250Z,10.7
2023-03-16T13:20:27.760Z,11.4
2023-03-16T13:26:23.281Z,12.1
2023-03-16T13:31:45.577Z,12.3
2023-03-16T13:36:52.247Z,12.3
2023-03-16T13:42:33.578Z,12.3
2023-03-16T13:48:11.102Z,12.4
2023-03-16T13:53:47.836Z,12.8
2023-03-16T13:59:26.404Z,13
2023-03-16T14:05:03.591Z,12.8
2023-03-16T14:10:41.364Z,12.2
2023-03-16T14:16:39.826Z,11.7
2023-03-16T14:22:41.567Z,11.1
2023-03-16T14:28:36.728Z,10.5
2023-03-16T14:34:30.904Z,9.9
2023-03-16T14:40:09.163Z,9.4
2023-03-16T14:46:02.729Z,8.8
2023-03-16T14:51:41.147Z,8.3
2023-03-16T14:57:33.809Z,7.8
2023-03-16T15:03:44.670Z,7.3
2023-03-16T15:09:39.990Z,6.9
2023-03-16T15:15:17.288Z,6.6
2023-03-16T15:21:09.899Z,6.4
2023-03-16T15:26:47.069Z,6.3
2023-03-16T15:32:39.991Z,6.1
2023-03-16T15:38:17.667Z,5.9
2023-03-16T15:44:22.852Z,5.7
2023-03-16T15:50:22.012Z,5.4
2023-03-16T15:56:22.467Z,5.2
2023-03-16T16:02:30.597Z,4.9
2023-03-16T16:08:07.301Z,4.6
2023-03-16T16:13:41.434Z,4.4
2023-03-16T16:19:50.221Z,4.1
2023-03-16T16:25:27.438Z,3.8
2023-03-16T16:31:04.293Z,3.6
2023-03-16T16:36:08.162Z,3.3
2023-03-16T16:41:46.405Z,3.1
2023-03-16T16:46:23.215Z,2.9
2023-03-16T16:51:45.385Z,2.7
2023-03-16T16:57:10.365Z,2.5
2023-03-16T17:02:58.625Z,2.3
2023-03-16T17:08:06.142Z,2.2
2023-03-16T17:13:28.208Z,2.1
2023-03-16T17:18:52.332Z,1.9
2023-03-16T17:24:45.458Z,1.8
2023-03-16T17:30:08.221Z,1.8
2023-03-16T17:35:46.662Z,1.6
2023-03-16T17:41:29.379Z,1.6
2023-03-16T17:47:08.344Z,1.5
2023-03-16T17:53:01.535Z,1.4
2023-03-16T17:58:54.463Z,1.3
2023-03-16T18:04:19.057Z,1.2
2023-03-16T18:10:12.653Z,1.1
2023-03-16T18:15:51.196Z,1.1
2023-03-16T18:20:57.996Z,1
2023-03-16T18:26:51.685Z,0.9
2023-03-16T18:32:46.931Z,0.8
2023-03-16T18:38:40.136Z,0.8
2023-03-16T18:44:18.084Z,0.8
2023-03-16T18:49:55.919Z,0.7
2023-03-16T18:55:49.129Z,0.7
2023-03-16T19:01:10.946Z,0.7
2023-03-16T19:06:18.232Z,0.7
2023-03-16T19:11:42.267Z,0.6
2023-03-16T19:17:20.840Z,0.6
2023-03-16T19:22:58.153Z,0.6
2023-03-16T19:28:36.045Z,0.6
2023-03-16T19:33:58.363Z,0.5
2023-03-16T19:40:05.501Z,0.6
2023-03-16T19:45:43.683Z,0.5
2023-03-16T19:51:36.428Z,0.4
2023-03-16T19:57:29.643Z,0.4
2023-03-16T20:03:22.421Z,0.4
2023-03-16T20:09:16.095Z,0.4
2023-03-16T20:14:53.979Z,0.4
2023-03-16T20:20:17.316Z,0.4
2023-03-16T20:25:38.750Z,0.4
2023-03-16T20:31:32.291Z,0.4
2023-03-16T20:37:09.803Z,0.4
2023-03-16T20:42:48.663Z,0.4
2023-03-16T20:48:26.546Z,0.4
2023-03-16T20:53:47.378Z,0.4
2023-03-16T20:59:40.733Z,0.4
2023-03-16T21:05:34.127Z,0.4
2023-03-16T21:11:35.916Z,0.3
2023-03-16T21:16:59.547Z,0.4
2023-03-16T21:22:51.592Z,0.3
2023-03-16T21:28:45.572Z,0.3
2023-03-16T21:34:38.765Z,0.3
2023-03-16T21:40:33.138Z,0.3
2023-03-16T21:46:26.618Z,0.3
2023-03-16T21:52:20.322Z,0.3
2023-03-16T21:57:59.723Z,0.3
2023-03-16T22:03:49.584Z,0.3
2023-03-16T22:09:43.584Z,0.3
2023-03-16T22:15:21.508Z,0.3
2023-03-16T22:21:14.083Z,0.3
2023-03-16T22:26:52.796Z,0.3
2023-03-16T22:32:30.141Z,0.3
2023-03-16T22:38:22.281Z,0.3
2023-03-16T22:44:14.735Z,0.3
2023-03-16T22:49:52.232Z,0.3
2023-03-16T22:55:45.549Z,0.3
2023-03-16T23:01:39.277Z,0.3
2023-03-16T23:07:32.970Z,0.3
2023-03-16T23:13:12.433Z,0.3
2023-03-16T23:19:12.451Z,0.3
2023-03-16T23:25:19.604Z,0.3
2023-03-16T23:30:57.156Z,0.3
2023-03-16T23:36:35.377Z,0.2
2023-03-16T23:42:12.835Z,0.3
2023-03-16T23:47:49.907Z,0.2
2023-03-16T23:53:27.899Z,0.2
2023-03-16T23:59:04.456Z,0.2
